createdAt,value
2022-08-23T00:05:08.012Z,2.90
2022-08-23T00:10:16.607Z,2.67
2022-08-23T00:15:27.076Z,3.00
2022-08-23T00:20:36.151Z,2.87
2022-08-23T00:25:41.756Z,2.47
2022-08-23T00:30:51.185Z,2.95
2022-08-23T00:35:56.586Z,2.70
2022-08-23T00:41:02.498Z,3.05
2022-08-23T00:46:32.364Z,2.95
2022-08-23T00:51:53.064Z,3.00
2022-08-23T00:57:01.868Z,2.87
2022-08-23T01:02:12.020Z,3.35
2022-08-23T01:07:25.065Z,2.88
2022-08-23T01:12:38.525Z,2.60
2022-08-23T01:17:52.056Z,3.25
2022-08-23T01:23:02.981Z,2.92
2022-08-23T01:28:11.110Z,2.83
2022-08-23T01:33:16.759Z,3.05
2022-08-23T01:38:23.662Z,3.03
2022-08-23T01:43:32.494Z,3.00
2022-08-23T01:48:38.112Z,2.70
2022-08-23T01:53:44.310Z,2.70
2022-08-23T01:58:54.022Z,3.00
2022-08-23T02:04:04.932Z,2.97
2022-08-23T02:09:15.930Z,3.00
2022-08-23T02:14:27.545Z,3.15
2022-08-23T02:19:43.607Z,2.83
2022-08-23T02:24:50.386Z,3.50
2022-08-23T02:29:59.259Z,3.10
2022-08-23T02:35:06.030Z,3.40
2022-08-23T02:40:14.861Z,3.30
2022-08-23T02:45:24.421Z,3.50
2022-08-23T02:50:30.943Z,3.13
2022-08-23T02:55:37.763Z,3.27
2022-08-23T03:00:49.665Z,3.15
2022-08-23T03:05:55.658Z,3.22
2022-08-23T03:11:23.769Z,3.67
2022-08-23T03:16:33.998Z,3.95
2022-08-23T03:21:40.460Z,3.50
2022-08-23T03:26:49.745Z,3.50
2022-08-23T03:31:58.585Z,3.50
2022-08-23T03:37:05.405Z,3.38
2022-08-23T03:42:12.277Z,3.72
2022-08-23T03:47:21.574Z,3.40
2022-08-23T03:52:30.443Z,3.40
2022-08-23T03:57:36.883Z,3.17
2022-08-23T04:02:45.840Z,3.50
2022-08-23T04:07:52.407Z,3.50
2022-08-23T04:13:02.159Z,3.90
2022-08-23T04:18:10.753Z,4.03
2022-08-23T04:23:16.893Z,4.47
2022-08-23T04:28:29.217Z,4.40
2022-08-23T04:33:40.261Z,4.20
2022-08-23T04:38:47.546Z,4.73
2022-08-23T04:43:54.519Z,4.88
2022-08-23T04:49:03.224Z,4.68
2022-08-23T04:54:09.753Z,4.83
2022-08-23T04:59:28.660Z,4.55
2022-08-23T05:04:38.496Z,4.80
2022-08-23T05:09:44.302Z,3.60
2022-08-23T05:14:52.618Z,4.63
2022-08-23T05:20:01.436Z,4.13
2022-08-23T05:25:09.194Z,4.63
2022-08-23T05:30:15.657Z,4.40
2022-08-23T05:35:24.877Z,4.60
2022-08-23T05:40:31.636Z,4.38
2022-08-23T05:45:46.483Z,4.27
2022-08-23T05:50:55.428Z,4.85
2022-08-23T05:56:12.548Z,5.10
2022-08-23T06:01:20.481Z,5.63
2022-08-23T06:06:36.888Z,5.20
2022-08-23T06:11:46.240Z,5.57
2022-08-23T06:16:55.976Z,6.15
2022-08-23T06:22:07.255Z,5.87
2022-08-23T06:27:19.311Z,5.18
2022-08-23T06:32:24.905Z,5.45
2022-08-23T06:37:51.964Z,5.20
2022-08-23T06:43:16.830Z,4.88
2022-08-23T06:48:42.804Z,4.53
2022-08-23T06:53:51.250Z,4.47
2022-08-23T06:59:32.789Z,4.40
2022-08-23T07:05:11.482Z,3.88
2022-08-23T07:10:31.008Z,3.72
2022-08-23T07:15:37.292Z,4.10
2022-08-23T07:20:44.521Z,4.00
2022-08-23T07:25:53.459Z,3.85
2022-08-23T07:31:14.467Z,4.50
2022-08-23T07:36:23.389Z,4.35
2022-08-23T07:41:35.827Z,4.47
2022-08-23T07:46:46.635Z,4.67
2022-08-23T07:51:54.746Z,3.40
2022-08-23T07:57:03.533Z,4.47
2022-08-23T08:02:28.028Z,4.72
2022-08-23T08:07:35.560Z,4.00
2022-08-23T08:12:46.342Z,3.63
2022-08-23T08:17:57.350Z,4.55
2022-08-23T08:23:29.360Z,3.93
2022-08-23T08:28:56.346Z,4.30
2022-08-23T08:34:05.967Z,3.72
2022-08-23T08:39:13.814Z,3.93
2022-08-23T08:44:33.083Z,4.20
2022-08-23T08:49:46.024Z,4.13
2022-08-23T08:54:57.803Z,4.72
2022-08-23T09:00:10.603Z,4.80
2022-08-23T09:05:22.300Z,4.00
2022-08-23T09:10:52.167Z,3.92
2022-08-23T09:16:11.558Z,3.80
2022-08-23T09:21:18.006Z,3.80
2022-08-23T09:26:26.757Z,4.03
2022-08-23T09:31:43.331Z,4.17
2022-08-23T09:36:52.332Z,4.03
2022-08-23T09:41:58.441Z,4.50
2022-08-23T09:47:16.008Z,4.53
2022-08-23T09:52:31.311Z,4.97
2022-08-23T09:57:40.227Z,4.43
2022-08-23T10:02:48.480Z,4.38
2022-08-23T10:08:01.779Z,5.30
2022-08-23T10:13:09.921Z,5.10
2022-08-23T10:18:30.946Z,4.85
2022-08-23T10:23:48.568Z,4.43
2022-08-23T10:29:11.185Z,4.33
2022-08-23T10:34:33.777Z,3.33
2022-08-23T10:39:46.522Z,3.42
2022-08-23T10:44:59.244Z,3.53
2022-08-23T10:50:12.665Z,3.30
2022-08-23T10:55:35.961Z,3.08
2022-08-23T11:00:43.883Z,3.37
2022-08-23T11:06:27.455Z,3.00
2022-08-23T11:11:52.644Z,3.33
2022-08-23T11:17:02.574Z,3.30
2022-08-23T11:22:21.630Z,3.20
2022-08-23T11:27:37.385Z,3.35
2022-08-23T11:32:47.367Z,3.35
2022-08-23T11:38:05.001Z,3.27
2022-08-23T11:43:29.406Z,3.03
2022-08-23T11:48:43.439Z,3.33
2022-08-23T11:54:18.076Z,3.50
2022-08-23T11:59:41.842Z,3.13
2022-08-23T12:04:55.718Z,3.13
2022-08-23T12:10:04.501Z,3.50
2022-08-23T12:15:12.849Z,3.40
2022-08-23T12:20:30.011Z,3.03
2022-08-23T12:25:38.623Z,3.28
2022-08-23T12:30:55.784Z,3.23
2022-08-23T12:36:19.230Z,3.40
2022-08-23T12:41:30.542Z,2.78
2022-08-23T12:46:42.826Z,3.17
2022-08-23T12:51:53.194Z,2.95
2022-08-23T12:57:09.902Z,3.20
2022-08-23T13:02:28.923Z,2.97
2022-08-23T13:07:35.391Z,3.33
2022-08-23T13:12:46.879Z,3.00
2022-08-23T13:18:03.554Z,3.15
2022-08-23T13:23:12.058Z,2.90
2022-08-23T13:28:31.175Z,2.85
2022-08-23T13:33:41.012Z,2.85
2022-08-23T13:38:47.984Z,2.87
2022-08-23T13:43:56.456Z,3.17
2022-08-23T13:49:07.554Z,2.80
2022-08-23T13:54:17.014Z,2.87
2022-08-23T13:59:31.277Z,2.57
2022-08-23T14:04:38.600Z,2.83
2022-08-23T14:09:44.483Z,2.50
2022-08-23T14:14:53.663Z,2.43
2022-08-23T14:25:25.396Z,2.30
2022-08-23T14:30:39.719Z,2.43
2022-08-23T14:35:45.694Z,2.30
2022-08-23T14:40:56.036Z,2.10
2022-08-23T14:46:05.085Z,2.13
2022-08-23T14:51:20.690Z,2.60
2022-08-23T14:56:27.120Z,1.80
2022-08-23T15:01:36.502Z,2.10
2022-08-23T15:07:00.487Z,2.10
2022-08-23T15:17:39.321Z,1.73
2022-08-23T15:23:03.017Z,2.23
2022-08-23T15:28:13.056Z,2.40
2022-08-23T15:33:26.800Z,2.08
2022-08-23T15:38:36.066Z,2.47
2022-08-23T15:43:42.152Z,1.93
2022-08-23T15:48:56.280Z,1.67
2022-08-23T15:54:01.868Z,2.20
2022-08-23T15:59:07.873Z,2.37
2022-08-23T16:04:17.101Z,2.22
2022-08-23T16:09:24.879Z,1.90
2022-08-23T16:14:31.445Z,1.83
2022-08-23T16:19:39.758Z,2.20
2022-08-23T16:24:45.708Z,1.95
2022-08-23T16:29:51.221Z,1.97
2022-08-23T16:34:59.603Z,1.90
2022-08-23T16:40:05.410Z,1.83
2022-08-23T16:45:12.984Z,1.75
2022-08-23T16:50:21.516Z,2.03
2022-08-23T16:55:27.232Z,1.85
2022-08-23T17:00:33.190Z,1.67
2022-08-23T17:05:41.332Z,1.67
2022-08-23T17:10:48.539Z,1.65
2022-08-23T17:15:55.335Z,1.60
2022-08-23T17:21:07.083Z,1.67
2022-08-23T17:26:13.363Z,1.70
2022-08-23T17:31:19.968Z,1.80
2022-08-23T17:36:32.171Z,1.60
2022-08-23T17:41:40.984Z,1.70
2022-08-23T17:46:51.295Z,1.50
2022-08-23T17:51:59.682Z,1.50
2022-08-23T17:57:05.262Z,1.37
2022-08-23T18:02:12.220Z,1.42
2022-08-23T18:07:24.281Z,1.67
2022-08-23T18:12:30.443Z,1.70
2022-08-23T18:17:37.129Z,1.60
2022-08-23T18:22:45.359Z,1.83
2022-08-23T18:28:10.032Z,1.88
2022-08-23T18:33:16.216Z,1.27
2022-08-23T18:38:26.632Z,1.75
2022-08-23T18:43:37.365Z,1.35
2022-08-23T18:48:43.365Z,1.80
2022-08-23T18:54:01.958Z,1.60
2022-08-23T18:59:07.617Z,1.75
2022-08-23T19:04:15.151Z,1.53
2022-08-23T19:09:23.064Z,1.70
2022-08-23T19:14:29.652Z,1.50
2022-08-23T19:19:35.260Z,1.67
2022-08-23T19:24:45.859Z,1.50
2022-08-23T19:29:51.460Z,1.38
2022-08-23T19:34:59.564Z,1.45
2022-08-23T19:40:09.875Z,1.60
2022-08-23T19:45:19.214Z,1.70
2022-08-23T19:50:25.156Z,1.70
2022-08-23T19:55:33.597Z,1.60
2022-08-23T20:00:40.687Z,1.77
2022-08-23T20:05:46.305Z,1.83
2022-08-23T20:10:54.514Z,2.10
2022-08-23T20:16:01.609Z,1.77
2022-08-23T20:21:07.081Z,1.60
2022-08-23T20:26:15.654Z,2.13
2022-08-23T20:31:22.645Z,1.83
2022-08-23T20:36:29.330Z,1.80
2022-08-23T20:41:39.790Z,1.70
2022-08-23T20:46:45.649Z,1.90
2022-08-23T20:51:52.304Z,2.00
2022-08-23T20:57:00.658Z,1.92
2022-08-23T21:02:06.573Z,1.70
2022-08-23T21:07:12.324Z,1.90
2022-08-23T21:12:20.494Z,1.70
2022-08-23T21:17:26.213Z,2.00
2022-08-23T21:22:32.217Z,2.63
2022-08-23T21:27:40.584Z,2.08
2022-08-23T21:32:46.444Z,1.90
2022-08-23T21:37:52.166Z,2.10
2022-08-23T21:43:00.654Z,1.77
2022-08-23T21:48:06.947Z,2.30
2022-08-23T21:53:13.096Z,1.92
2022-08-23T21:58:21.242Z,2.53
2022-08-23T22:03:27.076Z,2.08
2022-08-23T22:08:33.140Z,1.83
2022-08-23T22:13:42.412Z,2.27
2022-08-23T22:18:48.195Z,2.10
2022-08-23T22:23:53.593Z,2.55
2022-08-23T22:29:02.366Z,2.57
2022-08-23T22:34:09.554Z,2.70
2022-08-23T22:39:15.205Z,2.20
2022-08-23T22:44:23.467Z,2.90
2022-08-23T22:49:31.031Z,2.20
2022-08-23T22:54:36.741Z,2.05
2022-08-23T22:59:45.175Z,2.00
2022-08-23T23:04:50.714Z,1.80
2022-08-23T23:09:58.744Z,1.80
2022-08-23T23:15:07.572Z,1.90
2022-08-23T23:20:26.863Z,1.97
2022-08-23T23:25:32.471Z,1.60
2022-08-23T23:30:44.019Z,2.05
2022-08-23T23:35:50.319Z,1.95
2022-08-23T23:40:55.702Z,1.83
2022-08-23T23:46:07.954Z,2.08
2022-08-23T23:51:16.906Z,1.85
2022-08-23T23:56:24.812Z,1.50
